Time;durP1;ratioP1;P1;durP2;ratioP2;P2;SDS_P1;SDS_P2;PMS_P1;PMS_P2;Temp;Humidity;BMP_temperature;BMP_pressure;BME280_temperature;BME280_humidity;BME280_pressure;Samples;Min_cycle;Max_cycle;Signal;HPM_P1;HPM_P2
2022/05/14 00:00:19;;;;;;;14.63;2.15;;;;;;;;;;5025142;27;93989;-70
2022/05/14 00:02:46;;;;;;;15.70;2.40;;;;;;;;;;5015498;28;96218;-69
2022/05/14 00:05:12;;;;;;;15.98;3.03;;;;;;;;;;5016547;28;92732;-69
2022/05/14 00:07:39;;;;;;;14.50;2.85;;;;;;;;;;5030696;28;92817;-69
2022/05/14 00:10:06;;;;;;;11.73;2.80;;;;;;;;;;5023523;27;92449;-68
2022/05/14 00:15:17;;;;;;;14.20;3.17;;;;;;;;;;5021967;27;93442;-68
2022/05/14 00:17:44;;;;;;;8.88;2.38;;;;;;;;;;5037526;27;92796;-69
2022/05/14 00:20:11;;;;;;;13.82;3.20;;;;;;;;;;5037264;27;92911;-69
2022/05/14 00:22:37;;;;;;;16.80;2.88;;;;;;;;;;5021379;27;93412;-69
2022/05/14 00:25:03;;;;;;;16.85;3.30;;;;;;;;;;5017150;28;92673;-69
2022/05/14 00:27:30;;;;;;;17.25;2.63;;;;;;;;;;5029682;28;95307;-68
2022/05/14 00:29:56;;;;;;;14.93;3.05;;;;;;;;;;5029060;28;93352;-69
2022/05/14 00:32:23;;;;;;;16.08;3.15;;;;;;;;;;5016353;28;95054;-69
2022/05/14 00:34:49;;;;;;;17.98;3.63;;;;;;;;;;5020469;28;92465;-69
2022/05/14 00:37:16;;;;;;;18.80;3.63;;;;;;;;;;5022724;28;92456;-69
2022/05/14 00:39:43;;;;;;;20.70;3.92;;;;;;;;;;5028837;28;93043;-69
2022/05/14 00:42:10;;;;;;;16.40;3.63;;;;;;;;;;5029232;28;93250;-69
2022/05/14 00:44:36;;;;;;;14.80;2.88;;;;;;;;;;5017669;28;91714;-68
2022/05/14 00:47:04;;;;;;;12.52;3.80;;;;;;;;;;5035230;27;92628;-69
2022/05/14 00:49:32;;;;;;;15.25;3.33;;;;;;;;;;5020813;27;93308;-69
2022/05/14 00:51:59;;;;;;;26.58;3.58;;;;;;;;;;5019375;28;95578;-69
2022/05/14 00:54:29;;;;;;;21.95;3.85;;;;;;;;;;5026256;28;93644;-69
2022/05/14 00:57:00;;;;;;;14.93;3.20;;;;;;;;;;5017646;28;92427;-69
2022/05/14 00:59:27;;;;;;;23.33;3.97;;;;;;;;;;5017270;28;93437;-69
2022/05/14 01:01:54;;;;;;;15.68;3.13;;;;;;;;;;5026536;28;94370;-69
2022/05/14 01:04:21;;;;;;;19.17;4.13;;;;;;;;;;5030491;28;93170;-69
2022/05/14 01:06:54;;;;;;;17.52;3.88;;;;;;;;;;5036729;27;92411;-69
2022/05/14 01:09:20;;;;;;;22.27;3.53;;;;;;;;;;5018135;27;92482;-69
2022/05/14 01:11:48;;;;;;;17.27;3.63;;;;;;;;;;5015230;28;92521;-68
2022/05/14 01:14:14;;;;;;;17.30;3.90;;;;;;;;;;5020411;28;92998;-68
2022/05/14 01:16:41;;;;;;;17.45;2.95;;;;;;;;;;5022849;27;94874;-68
2022/05/14 01:19:07;;;;;;;17.52;3.05;;;;;;;;;;5024678;27;95483;-69
2022/05/14 01:21:52;;;;;;;17.55;3.55;;;;;;;;;;5015425;28;94405;-68
2022/05/14 01:27:11;;;;;;;12.07;3.35;;;;;;;;;;5029537;28;93113;-68
2022/05/14 01:29:38;;;;;;;19.38;3.03;;;;;;;;;;5033922;27;93376;-69
2022/05/14 01:32:04;;;;;;;17.52;3.42;;;;;;;;;;5026408;27;92601;-68
2022/05/14 01:34:31;;;;;;;14.63;3.72;;;;;;;;;;5029055;28;92469;-69
2022/05/14 01:36:57;;;;;;;18.60;3.40;;;;;;;;;;5021301;27;93928;-68
2022/05/14 01:39:24;;;;;;;13.23;3.40;;;;;;;;;;5030538;27;93925;-68
2022/05/14 01:41:51;;;;;;;18.17;3.90;;;;;;;;;;5029981;28;96000;-69
2022/05/14 01:44:18;;;;;;;16.08;3.38;;;;;;;;;;5015912;27;93737;-68
2022/05/14 01:46:44;;;;;;;25.65;4.00;;;;;;;;;;5020644;27;93351;-69
2022/05/14 01:49:11;;;;;;;9.98;3.75;;;;;;;;;;5014384;28;93462;-69
2022/05/14 01:51:37;;;;;;;20.70;4.22;;;;;;;;;;5027947;27;92539;-68
2022/05/14 01:54:04;;;;;;;17.67;3.88;;;;;;;;;;5015037;27;93237;-69
2022/05/14 01:56:30;;;;;;;18.73;3.90;;;;;;;;;;5027473;27;94463;-68
2022/05/14 01:58:56;;;;;;;18.88;3.53;;;;;;;;;;5019635;28;91723;-68
2022/05/14 02:01:24;;;;;;;18.73;4.05;;;;;;;;;;5015821;28;94991;-68
2022/05/14 02:03:55;;;;;;;11.60;3.15;;;;;;;;;;5027536;28;92569;-69
2022/05/14 02:06:22;;;;;;;17.23;3.35;;;;;;;;;;5025094;27;94904;-69
2022/05/14 02:08:49;;;;;;;17.98;3.90;;;;;;;;;;5030976;27;97400;-70
2022/05/14 02:11:16;;;;;;;14.45;3.72;;;;;;;;;;5015335;28;92419;-69
2022/05/14 02:13:43;;;;;;;13.15;3.17;;;;;;;;;;5018023;28;93239;-69
2022/05/14 02:16:09;;;;;;;23.38;3.92;;;;;;;;;;5029748;27;93922;-69
2022/05/14 02:18:36;;;;;;;18.92;3.05;;;;;;;;;;5032936;27;92576;-69
2022/05/14 02:21:03;;;;;;;14.38;3.42;;;;;;;;;;5032866;28;94433;-69
2022/05/14 02:23:29;;;;;;;15.82;4.22;;;;;;;;;;5013768;28;91788;-69
2022/05/14 02:25:55;;;;;;;23.95;3.60;;;;;;;;;;5026343;28;93608;-69
2022/05/14 02:28:22;;;;;;;14.57;3.22;;;;;;;;;;5033121;28;93532;-69
2022/05/14 02:30:48;;;;;;;19.45;3.78;;;;;;;;;;5034075;27;94807;-68
2022/05/14 02:33:15;;;;;;;18.02;3.75;;;;;;;;;;5022328;27;95874;-68
2022/05/14 02:35:42;;;;;;;16.05;4.00;;;;;;;;;;5024520;27;93523;-68
2022/05/14 02:38:08;;;;;;;19.88;4.43;;;;;;;;;;5032193;27;94086;-69
2022/05/14 02:40:34;;;;;;;22.10;3.88;;;;;;;;;;5037202;28;93365;-69
2022/05/14 02:43:00;;;;;;;11.63;3.55;;;;;;;;;;5020544;27;92606;-69
2022/05/14 02:45:27;;;;;;;15.15;3.83;;;;;;;;;;5019283;27;94299;-69
2022/05/14 02:47:53;;;;;;;22.00;3.70;;;;;;;;;;5030731;27;92840;-69
2022/05/14 02:50:20;;;;;;;13.75;3.80;;;;;;;;;;5018696;28;92590;-69
2022/05/14 02:52:46;;;;;;;21.50;4.22;;;;;;;;;;5014680;28;93271;-68
2022/05/14 02:55:12;;;;;;;15.60;3.67;;;;;;;;;;5028141;28;95541;-69
2022/05/14 02:57:39;;;;;;;24.40;4.60;;;;;;;;;;5025460;27;93571;-69
2022/05/14 03:00:07;;;;;;;13.30;3.45;;;;;;;;;;5017729;28;93061;-69
2022/05/14 03:02:34;;;;;;;14.43;3.67;;;;;;;;;;5027843;28;93631;-69
2022/05/14 03:05:01;;;;;;;14.75;4.43;;;;;;;;;;5034963;27;93209;-69
2022/05/14 03:07:27;;;;;;;14.93;4.00;;;;;;;;;;5032025;27;94338;-69
2022/05/14 03:09:53;;;;;;;22.30;3.95;;;;;;;;;;5026301;27;92652;-69
2022/05/14 03:12:22;;;;;;;22.92;4.82;;;;;;;;;;5016818;28;93645;-69
2022/05/14 03:14:49;;;;;;;14.60;4.78;;;;;;;;;;5021990;28;92399;-69
2022/05/14 03:17:15;;;;;;;13.73;4.10;;;;;;;;;;5035104;27;92448;-69
2022/05/14 03:19:42;;;;;;;14.32;4.00;;;;;;;;;;5017261;27;94764;-69
2022/05/14 03:22:08;;;;;;;15.35;4.57;;;;;;;;;;5017932;28;93193;-69
2022/05/14 03:24:38;;;;;;;20.63;4.72;;;;;;;;;;5017827;28;92870;-69
2022/05/14 03:27:05;;;;;;;25.73;6.18;;;;;;;;;;5014508;28;93472;-69
2022/05/14 03:29:32;;;;;;;30.92;5.68;;;;;;;;;;5014530;28;92451;-69
2022/05/14 03:31:59;;;;;;;12.05;4.78;;;;;;;;;;5018568;28;93136;-69
2022/05/14 03:34:26;;;;;;;14.68;4.40;;;;;;;;;;5033684;27;93404;-69
2022/05/14 03:36:52;;;;;;;23.13;5.20;;;;;;;;;;5014771;28;91630;-68
2022/05/14 03:39:19;;;;;;;18.90;5.43;;;;;;;;;;5013881;28;92473;-69
2022/05/14 03:41:45;;;;;;;23.73;5.63;;;;;;;;;;5013759;28;93426;-69
2022/05/14 03:44:12;;;;;;;20.85;6.05;;;;;;;;;;5017616;27;94853;-69
2022/05/14 03:46:38;;;;;;;19.38;5.85;;;;;;;;;;5032058;27;95532;-69
2022/05/14 03:49:04;;;;;;;27.83;5.38;;;;;;;;;;5032217;28;92479;-69
2022/05/14 03:51:31;;;;;;;23.45;5.95;;;;;;;;;;5016951;27;93025;-69
2022/05/14 03:53:58;;;;;;;23.00;6.18;;;;;;;;;;5023275;28;93051;-69
2022/05/14 03:56:24;;;;;;;21.25;5.95;;;;;;;;;;5034241;27;92432;-68
2022/05/14 03:58:50;;;;;;;19.75;6.13;;;;;;;;;;5032426;27;92497;-68
2022/05/14 04:01:18;;;;;;;21.40;5.72;;;;;;;;;;5032254;27;92750;-69
2022/05/14 04:03:45;;;;;;;25.40;6.55;;;;;;;;;;5027052;27;92449;-69
2022/05/14 04:06:11;;;;;;;23.00;6.63;;;;;;;;;;5015220;28;93016;-68
2022/05/14 04:08:38;;;;;;;19.25;6.30;;;;;;;;;;5011958;28;94847;-69
2022/05/14 04:11:05;;;;;;;26.65;7.03;;;;;;;;;;5013804;28;95403;-69
2022/05/14 04:13:32;;;;;;;28.30;6.72;;;;;;;;;;5013189;28;94292;-69
2022/05/14 04:15:58;;;;;;;19.77;7.03;;;;;;;;;;5025048;27;92485;-69
2022/05/14 04:18:25;;;;;;;27.83;6.30;;;;;;;;;;5034462;27;93306;-69
2022/05/14 04:20:55;;;;;;;18.80;6.18;;;;;;;;;;5026619;27;93322;-69
2022/05/14 04:23:22;;;;;;;26.77;6.90;;;;;;;;;;5019610;28;92711;-69
2022/05/14 04:25:50;;;;;;;26.40;6.97;;;;;;;;;;5029817;28;93324;-68
2022/05/14 04:28:17;;;;;;;23.92;6.68;;;;;;;;;;5026542;28;94354;-68
2022/05/14 04:30:44;;;;;;;22.73;7.13;;;;;;;;;;5037190;27;92976;-69
2022/05/14 04:33:11;;;;;;;30.50;8.50;;;;;;;;;;5028472;28;95873;-69
2022/05/14 04:35:37;;;;;;;19.63;7.07;;;;;;;;;;5030354;28;92551;-69
2022/05/14 04:38:03;;;;;;;23.58;7.72;;;;;;;;;;5031685;27;93344;-68
2022/05/14 04:40:30;;;;;;;25.73;7.57;;;;;;;;;;5036888;27;93498;-68
2022/05/14 04:42:56;;;;;;;18.17;6.72;;;;;;;;;;5016477;28;94269;-69
2022/05/14 04:45:22;;;;;;;20.05;7.50;;;;;;;;;;5003807;27;94266;-69
2022/05/14 04:47:49;;;;;;;28.45;8.20;;;;;;;;;;5004461;27;94398;-70
2022/05/14 04:50:16;;;;;;;31.73;8.13;;;;;;;;;;5007785;27;93160;-69
2022/05/14 04:52:42;;;;;;;24.08;7.50;;;;;;;;;;5003399;28;94287;-69
2022/05/14 04:55:09;;;;;;;23.70;7.82;;;;;;;;;;5006916;27;94134;-70
2022/05/14 04:57:38;;;;;;;25.20;8.23;;;;;;;;;;5004513;28;95706;-69
2022/05/14 05:00:04;;;;;;;30.90;7.50;;;;;;;;;;5000829;28;94263;-69
2022/05/14 05:05:16;;;;;;;28.08;8.20;;;;;;;;;;5002432;28;94541;-70
2022/05/14 05:07:42;;;;;;;25.98;8.02;;;;;;;;;;5003094;28;94467;-69
2022/05/14 05:10:09;;;;;;;32.83;9.13;;;;;;;;;;5001040;28;93966;-69
2022/05/14 05:12:35;;;;;;;27.08;8.43;;;;;;;;;;5006171;27;94500;-69
2022/05/14 05:15:01;;;;;;;26.33;8.40;;;;;;;;;;5001795;27;93861;-69
2022/05/14 05:17:28;;;;;;;25.52;8.30;;;;;;;;;;5000846;28;94129;-69
2022/05/14 05:19:54;;;;;;;29.17;8.18;;;;;;;;;;5001166;27;94877;-69
2022/05/14 05:22:20;;;;;;;28.83;9.15;;;;;;;;;;5002865;28;96532;-69
2022/05/14 05:24:46;;;;;;;29.80;9.75;;;;;;;;;;5001388;28;95702;-69
2022/05/14 05:27:13;;;;;;;24.33;8.80;;;;;;;;;;5005493;28;93022;-69
2022/05/14 05:29:39;;;;;;;28.67;9.10;;;;;;;;;;4999432;28;92557;-69
2022/05/14 05:32:05;;;;;;;28.40;9.55;;;;;;;;;;5004087;27;93304;-69
2022/05/14 05:34:32;;;;;;;27.23;9.13;;;;;;;;;;5004510;27;95331;-69
2022/05/14 05:36:59;;;;;;;33.63;10.32;;;;;;;;;;5002854;28;93437;-69
2022/05/14 05:39:25;;;;;;;27.27;10.57;;;;;;;;;;5002724;28;93700;-69
2022/05/14 05:41:51;;;;;;;29.55;9.90;;;;;;;;;;5000638;27;93242;-69
2022/05/14 05:44:17;;;;;;;32.10;10.27;;;;;;;;;;4999102;27;93192;-69
2022/05/14 05:46:44;;;;;;;40.42;10.23;;;;;;;;;;4998123;27;95910;-68
2022/05/14 05:49:10;;;;;;;27.38;10.32;;;;;;;;;;4999618;27;93031;-69
2022/05/14 05:51:36;;;;;;;31.48;10.38;;;;;;;;;;4999002;27;94020;-69
2022/05/14 05:56:50;;;;;;;37.03;9.88;;;;;;;;;;5011049;27;93713;-69
2022/05/14 05:59:16;;;;;;;35.65;10.70;;;;;;;;;;5000047;28;94083;-69
2022/05/14 06:01:43;;;;;;;35.65;10.77;;;;;;;;;;5022211;27;92749;-68
2022/05/14 06:04:10;;;;;;;28.77;10.85;;;;;;;;;;5016180;28;93601;-69
2022/05/14 06:06:41;;;;;;;37.45;10.38;;;;;;;;;;5019432;28;97310;-68
2022/05/14 06:09:08;;;;;;;39.08;9.90;;;;;;;;;;5022899;27;92502;-69
2022/05/14 06:11:34;;;;;;;41.10;10.52;;;;;;;;;;5017126;27;94828;-69
2022/05/14 06:14:00;;;;;;;39.03;10.45;;;;;;;;;;5014609;28;93469;-69
2022/05/14 06:16:27;;;;;;;33.63;9.77;;;;;;;;;;5023366;27;92516;-69
2022/05/14 06:18:53;;;;;;;38.20;10.10;;;;;;;;;;5021687;28;93514;-68
2022/05/14 06:21:19;;;;;;;28.52;10.00;;;;;;;;;;5014336;28;92487;-69
2022/05/14 06:23:46;;;;;;;35.83;10.85;;;;;;;;;;5014610;28;93488;-69
2022/05/14 06:26:12;;;;;;;36.30;9.85;;;;;;;;;;5014442;28;93562;-69
2022/05/14 06:28:38;;;;;;;37.85;10.80;;;;;;;;;;5016128;28;94264;-68
2022/05/14 06:31:05;;;;;;;38.75;9.52;;;;;;;;;;5014703;27;92639;-69
2022/05/14 06:33:32;;;;;;;31.20;10.02;;;;;;;;;;5013062;28;96495;-68
2022/05/14 06:35:58;;;;;;;36.30;9.23;;;;;;;;;;5010837;28;96059;-69
2022/05/14 06:38:26;;;;;;;32.65;10.35;;;;;;;;;;5017804;28;95372;-68
2022/05/14 06:40:53;;;;;;;39.35;10.38;;;;;;;;;;5014283;28;92537;-68
2022/05/14 06:43:20;;;;;;;34.65;9.32;;;;;;;;;;5030607;27;93350;-69
2022/05/14 06:45:46;;;;;;;35.78;9.68;;;;;;;;;;5021463;27;93488;-70
2022/05/14 06:48:12;;;;;;;30.13;9.35;;;;;;;;;;5035199;27;92439;-69
2022/05/14 06:50:41;;;;;;;32.38;8.15;;;;;;;;;;5034623;27;92887;-70
2022/05/14 06:53:08;;;;;;;33.25;9.63;;;;;;;;;;5035795;28;92567;-69
2022/05/14 06:55:36;;;;;;;34.92;9.38;;;;;;;;;;5018440;27;94722;-69
2022/05/14 06:58:03;;;;;;;40.42;9.25;;;;;;;;;;5014866;28;93268;-69
2022/05/14 07:00:29;;;;;;;34.80;8.82;;;;;;;;;;5015917;28;95412;-69
2022/05/14 07:06:37;;;;;;;40.28;9.98;;;;;;;;;;5013826;28;96501;-69
2022/05/14 07:08:26;;;;;;;32.38;8.77;;;;;;;;;;5018238;28;92467;-69
2022/05/14 07:10:53;;;;;;;34.38;8.65;;;;;;;;;;5011899;28;93095;-69
2022/05/14 07:13:19;;;;;;;40.17;8.98;;;;;;;;;;5013658;28;94858;-69
2022/05/14 07:15:45;;;;;;;34.70;9.02;;;;;;;;;;5023421;27;92476;-68
2022/05/14 07:18:11;;;;;;;30.15;7.78;;;;;;;;;;5032936;27;93260;-68
2022/05/14 07:20:38;;;;;;;29.95;8.55;;;;;;;;;;5033952;27;93644;-69
2022/05/14 07:23:04;;;;;;;29.05;7.25;;;;;;;;;;5034836;27;92581;-69
2022/05/14 07:25:30;;;;;;;26.80;7.68;;;;;;;;;;5032933;27;95607;-69
2022/05/14 07:27:58;;;;;;;30.98;6.55;;;;;;;;;;5023413;27;93124;-69
2022/05/14 07:30:24;;;;;;;26.88;7.00;;;;;;;;;;5013442;28;93504;-68
2022/05/14 07:32:51;;;;;;;36.30;8.18;;;;;;;;;;5020996;28;93454;-68
2022/05/14 07:35:17;;;;;;;38.67;7.38;;;;;;;;;;5032529;28;92436;-69
2022/05/14 07:37:47;;;;;;;27.67;7.10;;;;;;;;;;5033781;28;93048;-69
2022/05/14 07:40:19;;;;;;;27.95;6.38;;;;;;;;;;5034182;27;93830;-68
2022/05/14 07:42:45;;;;;;;39.83;6.55;;;;;;;;;;5016474;27;91660;-68
2022/05/14 07:45:15;;;;;;;28.42;6.40;;;;;;;;;;5029976;27;92547;-69
2022/05/14 07:47:42;;;;;;;43.35;6.45;;;;;;;;;;5034613;27;92625;-68
2022/05/14 07:50:09;;;;;;;42.03;7.82;;;;;;;;;;5031669;27;94790;-69
2022/05/14 07:52:36;;;;;;;31.75;6.43;;;;;;;;;;5034508;27;93092;-69
2022/05/14 07:55:03;;;;;;;33.40;6.43;;;;;;;;;;5023515;27;92575;-69
2022/05/14 07:57:30;;;;;;;31.30;7.05;;;;;;;;;;5017322;28;93172;-68
2022/05/14 07:59:56;;;;;;;31.52;6.55;;;;;;;;;;5017816;28;93463;-68
2022/05/14 08:02:24;;;;;;;28.02;6.05;;;;;;;;;;5017139;28;93097;-68
2022/05/14 08:04:50;;;;;;;34.55;4.80;;;;;;;;;;5006160;28;93129;-68
2022/05/14 08:07:17;;;;;;;30.67;5.55;;;;;;;;;;5019756;28;93059;-68
2022/05/14 08:09:43;;;;;;;24.50;5.47;;;;;;;;;;5017380;28;92441;-68
2022/05/14 08:12:11;;;;;;;26.60;4.75;;;;;;;;;;5017067;28;93437;-69
2022/05/14 08:14:39;;;;;;;37.08;6.07;;;;;;;;;;5015592;28;95178;-68
2022/05/14 08:17:06;;;;;;;28.40;4.80;;;;;;;;;;5029125;27;95647;-70
2022/05/14 08:19:33;;;;;;;27.40;5.57;;;;;;;;;;5027176;28;93434;-69
2022/05/14 08:24:44;;;;;;;27.60;5.30;;;;;;;;;;5034854;27;93500;-69
2022/05/14 08:27:11;;;;;;;27.27;4.80;;;;;;;;;;5034181;27;93517;-68
2022/05/14 08:29:39;;;;;;;25.20;5.15;;;;;;;;;;5020697;28;93053;-68
2022/05/14 08:32:06;;;;;;;32.08;5.80;;;;;;;;;;5037941;27;93181;-69
2022/05/14 08:34:33;;;;;;;15.07;4.00;;;;;;;;;;5037523;27;92417;-68
2022/05/14 08:37:03;;;;;;;29.17;4.63;;;;;;;;;;5027746;27;93699;-69
2022/05/14 08:39:30;;;;;;;26.95;5.45;;;;;;;;;;5024067;27;95661;-68
2022/05/14 08:42:00;;;;;;;32.05;5.22;;;;;;;;;;5030965;28;92489;-69
2022/05/14 08:44:30;;;;;;;24.92;4.75;;;;;;;;;;5023254;27;93140;-68
2022/05/14 08:46:58;;;;;;;20.25;4.95;;;;;;;;;;5033918;27;93473;-69
2022/05/14 08:49:34;;;;;;;35.10;5.53;;;;;;;;;;5022718;28;93379;-70
2022/05/14 08:52:01;;;;;;;27.45;5.05;;;;;;;;;;5018449;27;94242;-69
2022/05/14 08:54:28;;;;;;;27.67;5.70;;;;;;;;;;5031653;27;92584;-69
2022/05/14 08:57:00;;;;;;;25.55;5.10;;;;;;;;;;5025533;27;93137;-69
2022/05/14 08:59:56;;;;;;;28.98;5.60;;;;;;;;;;5021727;28;97079;-69
2022/05/14 09:02:25;;;;;;;26.38;5.25;;;;;;;;;;5006926;28;93673;-69
2022/05/14 09:04:59;;;;;;;22.42;4.75;;;;;;;;;;5014259;28;94786;-69
2022/05/14 09:07:25;;;;;;;27.25;4.75;;;;;;;;;;5027162;27;94166;-69
2022/05/14 09:09:54;;;;;;;22.45;4.53;;;;;;;;;;5020781;27;92643;-69
2022/05/14 09:12:23;;;;;;;25.05;5.18;;;;;;;;;;5019482;28;93285;-70
2022/05/14 09:14:54;;;;;;;24.60;5.10;;;;;;;;;;5019135;28;92509;-69
2022/05/14 09:17:20;;;;;;;;;;;;;;;;;;5030513;27;93051;-69
2022/05/14 09:19:48;;;;;;;29.75;5.70;;;;;;;;;;5023596;28;123975;-69
2022/05/14 09:22:21;;;;;;;25.00;5.10;;;;;;;;;;5026543;27;91852;-68
2022/05/14 09:24:50;;;;;;;26.38;4.95;;;;;;;;;;5034554;27;92896;-69
2022/05/14 09:27:22;;;;;;;25.05;5.30;;;;;;;;;;5033645;27;93581;-69
2022/05/14 09:29:50;;;;;;;27.25;5.15;;;;;;;;;;5026431;27;95121;-69
2022/05/14 09:32:17;;;;;;;29.08;5.00;;;;;;;;;;5017614;28;95570;-70
2022/05/14 09:34:43;;;;;;;31.65;5.25;;;;;;;;;;5029818;28;93474;-69
2022/05/14 09:37:27;;;;;;;23.45;4.70;;;;;;;;;;5015711;28;93253;-68
2022/05/14 09:40:00;;;;;;;32.72;4.93;;;;;;;;;;5024545;28;94446;-69
2022/05/14 09:42:32;;;;;;;22.55;4.95;;;;;;;;;;5027095;27;92407;-68
2022/05/14 09:44:59;;;;;;;26.95;5.15;;;;;;;;;;5016794;27;93468;-69
2022/05/14 09:47:33;;;;;;;25.08;4.60;;;;;;;;;;5023107;27;92786;-68
2022/05/14 09:50:02;;;;;;;22.75;4.57;;;;;;;;;;5015843;28;92569;-69
2022/05/14 09:52:32;;;;;;;21.35;4.57;;;;;;;;;;5016390;28;92942;-69
2022/05/14 09:54:59;;;;;;;23.50;4.50;;;;;;;;;;5013050;28;95859;-69
2022/05/14 09:57:44;;;;;;;21.75;4.32;;;;;;;;;;5019547;28;94009;-68
2022/05/14 10:00:13;;;;;;;27.52;5.28;;;;;;;;;;5015442;28;93567;-69
2022/05/14 10:02:45;;;;;;;24.02;4.55;;;;;;;;;;5019635;28;92499;-69
2022/05/14 10:05:27;;;;;;;22.35;4.43;;;;;;;;;;5025902;27;93338;-68
2022/05/14 10:07:56;;;;;;;21.40;4.78;;;;;;;;;;5028284;27;93505;-69
2022/05/14 10:10:25;;;;;;;23.25;4.30;;;;;;;;;;5027681;27;93923;-69
2022/05/14 10:12:56;;;;;;;22.90;4.40;;;;;;;;;;5017769;28;93383;-69
2022/05/14 10:15:22;;;;;;;18.55;3.92;;;;;;;;;;5022819;27;93625;-68
2022/05/14 10:18:09;;;;;;;26.23;4.53;;;;;;;;;;5032714;27;92787;-69
2022/05/14 10:20:46;;;;;;;21.63;3.90;;;;;;;;;;5023676;27;95358;-69
2022/05/14 10:29:02;;;;;;;23.55;4.88;;;;;;;;;;5021290;28;94666;-69
2022/05/14 10:31:39;;;;;;;19.65;3.75;;;;;;;;;;5013766;28;94149;-70
2022/05/14 10:34:08;;;;;;;24.90;4.40;;;;;;;;;;5028270;28;93623;-71
2022/05/14 10:36:40;;;;;;;16.77;4.10;;;;;;;;;;5014904;28;93426;-69
2022/05/14 10:39:28;;;;;;;23.77;5.05;;;;;;;;;;5023967;27;92276;-68
2022/05/14 10:42:01;;;;;;;22.65;4.57;;;;;;;;;;5027684;27;92809;-68
2022/05/14 10:44:30;;;;;;;25.98;4.80;;;;;;;;;;5014114;28;92358;-68
2022/05/14 10:47:00;;;;;;;17.52;3.83;;;;;;;;;;5029894;27;94786;-68
2022/05/14 10:49:35;;;;;;;19.88;4.57;;;;;;;;;;5034858;27;93195;-68
2022/05/14 10:52:02;;;;;;;18.05;4.28;;;;;;;;;;5035491;27;92663;-68
2022/05/14 10:54:31;;;;;;;21.77;5.25;;;;;;;;;;5030929;27;93593;-67
2022/05/14 10:56:59;;;;;;;18.30;4.50;;;;;;;;;;5020562;28;94788;-67
2022/05/14 10:59:34;;;;;;;21.60;4.20;;;;;;;;;;5033145;28;92407;-67
2022/05/14 11:02:02;;;;;;;22.03;4.10;;;;;;;;;;5035449;27;93220;-68
2022/05/14 11:04:42;;;;;;;23.58;5.00;;;;;;;;;;5035908;27;93021;-67
2022/05/14 11:07:16;;;;;;;30.30;5.00;;;;;;;;;;5020677;27;93377;-68
2022/05/14 11:09:51;;;;;;;19.48;3.72;;;;;;;;;;5034878;27;93252;-68
2022/05/14 11:12:22;;;;;;;23.70;4.78;;;;;;;;;;5033509;27;95012;-68
2022/05/14 11:14:48;;;;;;;16.73;3.72;;;;;;;;;;5029950;27;95558;-68
2022/05/14 11:17:22;;;;;;;21.42;4.25;;;;;;;;;;5033711;27;94216;-68
2022/05/14 11:20:04;;;;;;;29.95;4.70;;;;;;;;;;5034610;27;92573;-68
2022/05/14 11:22:32;;;;;;;24.67;5.15;;;;;;;;;;5016782;27;93232;-68
2022/05/14 11:25:09;;;;;;;18.45;5.00;;;;;;;;;;5015896;28;94547;-68
2022/05/14 11:27:37;;;;;;;14.77;4.60;;;;;;;;;;5016736;28;92402;-68
2022/05/14 11:30:06;;;;;;;21.50;4.88;;;;;;;;;;5013114;28;92616;-68
2022/05/14 11:32:47;;;;;;;26.73;4.30;;;;;;;;;;5016785;28;93138;-68
2022/05/14 11:35:13;;;;;;;;;;;;;;;;;;5024229;28;93360;-68
2022/05/14 11:37:43;;;;;;;21.85;4.10;;;;;;;;;;5033527;28;126595;-68
2022/05/14 11:40:21;;;;;;;23.15;4.57;;;;;;;;;;5015537;27;92460;-68
2022/05/14 11:42:48;;;;;;;23.60;4.75;;;;;;;;;;5014270;28;93330;-68
2022/05/14 11:45:17;;;;;;;30.83;5.80;;;;;;;;;;5017747;27;95816;-68
2022/05/14 11:47:56;;;;;;;16.50;4.43;;;;;;;;;;5035020;28;92750;-68
2022/05/14 11:50:25;;;;;;;14.70;3.97;;;;;;;;;;5032435;27;92922;-68
2022/05/14 11:52:56;;;;;;;30.88;5.78;;;;;;;;;;5025356;27;92675;-69
2022/05/14 11:55:25;;;;;;;20.25;5.00;;;;;;;;;;5028919;27;93369;-68
2022/05/14 11:58:01;;;;;;;32.00;5.65;;;;;;;;;;5034107;27;93578;-68
2022/05/14 12:00:29;;;;;;;23.23;4.93;;;;;;;;;;5016485;27;92704;-67
2022/05/14 12:03:02;;;;;;;19.67;4.55;;;;;;;;;;5032912;28;95193;-67
2022/05/14 12:05:37;;;;;;;21.85;4.65;;;;;;;;;;5024260;27;94132;-67
2022/05/14 12:08:18;;;;;;;19.95;4.35;;;;;;;;;;5014137;28;92477;-68
2022/05/14 12:10:56;;;;;;;23.58;5.30;;;;;;;;;;5015362;28;93167;-67
2022/05/14 12:13:31;;;;;;;41.67;5.00;;;;;;;;;;5021011;28;93554;-67
2022/05/14 12:15:59;;;;;;;18.80;5.18;;;;;;;;;;5031417;27;93193;-68
2022/05/14 12:18:26;;;;;;;23.95;4.78;;;;;;;;;;5031708;27;92575;-68
2022/05/14 12:20:55;;;;;;;15.27;4.78;;;;;;;;;;5015255;27;92826;-69
2022/05/14 12:23:31;;;;;;;19.40;4.78;;;;;;;;;;5013641;28;92779;-67
2022/05/14 12:25:57;;;;;;;21.15;4.38;;;;;;;;;;5015189;28;93495;-68
2022/05/14 12:28:28;;;;;;;28.95;5.65;;;;;;;;;;5011139;28;95539;-68
2022/05/14 12:34:01;;;;;;;18.33;5.07;;;;;;;;;;5033478;27;93445;-68
2022/05/14 12:36:31;;;;;;;23.73;5.57;;;;;;;;;;5033119;27;92469;-67
2022/05/14 12:38:58;;;;;;;22.75;4.68;;;;;;;;;;5027993;27;93509;-68
2022/05/14 12:41:30;;;;;;;24.83;5.05;;;;;;;;;;5016815;28;92375;-68
2022/05/14 12:44:17;;;;;;;26.15;5.13;;;;;;;;;;5017697;28;93172;-68
2022/05/14 12:46:45;;;;;;;22.35;5.20;;;;;;;;;;5032578;27;92604;-66
2022/05/14 12:49:19;;;;;;;22.15;4.80;;;;;;;;;;5029888;27;93841;-67
2022/05/14 12:51:50;;;;;;;20.17;5.00;;;;;;;;;;5015892;28;93202;-67
2022/05/14 12:54:18;;;;;;;21.80;5.15;;;;;;;;;;5015298;28;96805;-67
2022/05/14 12:56:44;;;;;;;26.90;5.15;;;;;;;;;;5018619;28;92442;-67
2022/05/14 12:59:11;;;;;;;24.55;5.72;;;;;;;;;;5017798;28;93543;-67
2022/05/14 13:01:37;;;;;;;25.73;5.65;;;;;;;;;;5035829;27;92516;-67
2022/05/14 13:04:07;;;;;;;22.38;4.78;;;;;;;;;;5030655;27;93552;-67
2022/05/14 13:06:34;;;;;;;21.38;5.13;;;;;;;;;;5016132;28;93418;-67
2022/05/14 13:09:05;;;;;;;25.40;5.47;;;;;;;;;;5026925;28;92539;-67
2022/05/14 13:11:33;;;;;;;18.95;4.43;;;;;;;;;;5016777;28;93279;-67
2022/05/14 13:14:10;;;;;;;23.13;4.82;;;;;;;;;;5016885;28;94287;-66
2022/05/14 13:16:36;;;;;;;20.55;4.85;;;;;;;;;;5041357;27;92454;-67
2022/05/14 13:19:22;;;;;;;21.20;4.40;;;;;;;;;;5040868;27;94813;-67
2022/05/14 13:21:50;;;;;;;19.90;4.85;;;;;;;;;;5035350;27;93366;-67
2022/05/14 13:24:28;;;;;;;20.25;4.68;;;;;;;;;;5034412;27;94135;-68
2022/05/14 13:26:56;;;;;;;24.60;4.50;;;;;;;;;;5036231;27;93611;-67
2022/05/14 13:29:24;;;;;;;21.00;4.80;;;;;;;;;;5036636;27;92424;-68
2022/05/14 13:31:51;;;;;;;19.42;4.45;;;;;;;;;;5033677;27;93020;-67
2022/05/14 13:37:21;;;;;;;26.73;4.90;;;;;;;;;;5016664;28;91749;-66
2022/05/14 13:39:50;;;;;;;19.42;4.57;;;;;;;;;;5016607;28;96141;-67
2022/05/14 13:42:26;;;;;;;32.83;4.47;;;;;;;;;;5028808;28;93330;-67
2022/05/14 13:45:08;;;;;;;23.90;4.68;;;;;;;;;;5016861;28;94891;-67
2022/05/14 13:47:35;;;;;;;15.52;3.72;;;;;;;;;;5016631;28;93659;-67
2022/05/14 13:50:02;;;;;;;19.38;4.00;;;;;;;;;;5015917;28;92493;-67
2022/05/14 13:52:31;;;;;;;23.00;4.75;;;;;;;;;;5015733;28;94361;-67
2022/05/14 13:55:02;;;;;;;19.00;4.28;;;;;;;;;;5018367;28;94505;-67
2022/05/14 13:57:29;;;;;;;15.75;3.80;;;;;;;;;;5015960;28;92524;-67
2022/05/14 14:00:05;;;;;;;18.17;4.78;;;;;;;;;;5015607;28;94228;-67
2022/05/14 14:02:31;;;;;;;22.70;4.57;;;;;;;;;;5023760;28;92646;-67
2022/05/14 14:05:00;;;;;;;18.05;4.47;;;;;;;;;;5022425;27;92413;-69
2022/05/14 14:07:27;;;;;;;31.73;4.68;;;;;;;;;;5036230;27;96497;-68
2022/05/14 14:09:54;;;;;;;29.00;4.88;;;;;;;;;;5034297;27;94889;-68
2022/05/14 14:12:23;;;;;;;16.85;4.80;;;;;;;;;;5035422;27;95686;-69
2022/05/14 14:14:49;;;;;;;16.73;4.35;;;;;;;;;;5021890;28;93491;-68
2022/05/14 14:17:16;;;;;;;23.98;4.57;;;;;;;;;;5020252;27;92692;-68
2022/05/14 14:19:42;;;;;;;18.65;3.80;;;;;;;;;;5013922;28;93247;-68
2022/05/14 14:22:10;;;;;;;18.92;3.78;;;;;;;;;;5015148;28;93672;-68
2022/05/14 14:24:38;;;;;;;25.88;4.82;;;;;;;;;;5015638;28;92522;-68
2022/05/14 14:27:06;;;;;;;22.33;4.72;;;;;;;;;;5037534;28;92994;-67
2022/05/14 14:29:32;;;;;;;17.75;4.78;;;;;;;;;;5034585;27;92482;-68
2022/05/14 14:31:58;;;;;;;18.45;4.20;;;;;;;;;;5031152;27;93218;-67
2022/05/14 14:34:25;;;;;;;25.58;4.97;;;;;;;;;;5033429;27;95389;-68
2022/05/14 14:36:51;;;;;;;33.67;5.00;;;;;;;;;;5035642;28;92602;-68
2022/05/14 14:39:17;;;;;;;53.53;5.78;;;;;;;;;;5031767;27;93083;-68
2022/05/14 14:41:43;;;;;;;35.60;4.95;;;;;;;;;;5034115;27;93221;-68
2022/05/14 14:44:10;;;;;;;12.77;4.13;;;;;;;;;;5034025;27;92406;-67
2022/05/14 14:46:41;;;;;;;30.13;4.32;;;;;;;;;;5033178;27;93455;-68
2022/05/14 14:49:08;;;;;;;15.38;4.28;;;;;;;;;;5030594;27;92474;-68
2022/05/14 14:51:34;;;;;;;21.92;4.60;;;;;;;;;;5014976;28;93238;-68
2022/05/14 14:54:01;;;;;;;21.42;4.25;;;;;;;;;;5015037;28;96200;-68
2022/05/14 14:56:27;;;;;;;19.00;4.32;;;;;;;;;;5014455;28;92640;-68
2022/05/14 14:58:55;;;;;;;19.50;4.55;;;;;;;;;;5014249;28;94745;-68
2022/05/14 15:01:25;;;;;;;26.45;5.63;;;;;;;;;;5034445;28;93533;-68
2022/05/14 15:03:51;;;;;;;;;;;;;;;;;;5034553;28;92462;-68
2022/05/14 15:06:18;;;;;;;19.88;4.75;;;;;;;;;;5036043;28;123068;-68